Mackenzie Hope — WDJ2187 — position and weather

sailwx.info

Track history (hours):
 
Tides and Currents Weather Stations Pressure Air Temp Water Temp Dewpoint Dewpoint Depression Visibility Wind Speed Wind Dir Waves Ship Positions

Mackenzie Hope

Owner: Genesis Marine, LLC, Houston, TX. More information available from US FCC via Universal Licensing System and Coast Guard Vessel Documentation Center.

Last reported at 2017-Sep-20 04:55 UTC. Time now 2017-Sep-22 09:57 UTC.
Position N 32°47' W 091°09'.

Length 25 m; draft 3.3 m.

Type: Ship (hazmat cat B). MMSI: 367756040.

Date/timePositionNaut miles runAvg speedWind from/ knotsBaromVisibWave heightAir tempDewpointWater temp
2017-Sep-20 04:55N 32°47' W 091°09'3 6.5
2017-Sep-20 04:30N 32°44' W 091°08'3 2.2
2017-Sep-20 02:58N 32°44' W 091°05'6 4.9
2017-Sep-20 01:50N 32°40' W 091°08'1 4.6
2017-Sep-20 01:30N 32°38' W 091°09'3 5.2
2017-Sep-20 01:00N 32°36' W 091°08'3 5.3
2017-Sep-20 00:30N 32°34' W 091°06'3 5.0
2017-Sep-20 00:00N 32°31' W 091°06'3 5.7
2017-Sep-19 23:30N 32°29' W 091°07'3 5.4
2017-Sep-19 23:00N 32°27' W 091°04'2 4.9
2017-Sep-19 22:30N 32°26' W 091°02'3 5.4
2017-Sep-19 22:00N 32°24' W 090°59'3 5.4
2017-Sep-19 21:30N 32°21' W 090°60'3 6.4
2017-Sep-19 21:00N 32°21' W 090°56'2 4.7
2017-Sep-19 20:30N 32°19' W 090°55'2 3.8
2017-Sep-19 20:00N 32°17' W 090°56'3 5.9
2017-Sep-19 19:30N 32°15' W 090°59'3 6.4
2017-Sep-19 19:00N 32°12' W 090°59'3 5.9
2017-Sep-19 18:30N 32°09' W 091°00'3 5.3
2017-Sep-19 18:00N 32°07' W 091°02'3 5.8
2017-Sep-19 17:30N 32°08' W 091°06'6 4.8
2017-Sep-19 16:19N 32°02' W 091°04'2 6.0
2017-Sep-19 16:00N 32°01' W 091°05'  
Track history (hours):
 
Tides and Currents Weather Stations Pressure Air Temp Water Temp Dewpoint Dewpoint Depression Visibility Wind Speed Wind Dir Waves Ship Positions

Mackenzie Hope

Owner: Genesis Marine, LLC, Houston, TX. More information available from US FCC via Universal Licensing System and Coast Guard Vessel Documentation Center.

Last reported at 2017-Sep-20 04:55 UTC. Time now 2017-Sep-22 09:57 UTC.
Position N 32°47' W 091°09'.

Length 25 m; draft 3.3 m.

Type: Ship (hazmat cat B). MMSI: 367756040.

Date/timePositionNaut miles runAvg speedWind from/ knotsBaromVisibWave heightAir tempDewpointWater temp
2017-Sep-20 04:55N 32°47' W 091°09'3 6.5
2017-Sep-20 04:30N 32°44' W 091°08'3 2.2
2017-Sep-20 02:58N 32°44' W 091°05'6 4.9
2017-Sep-20 01:50N 32°40' W 091°08'1 4.6
2017-Sep-20 01:30N 32°38' W 091°09'3 5.2
2017-Sep-20 01:00N 32°36' W 091°08'3 5.3
2017-Sep-20 00:30N 32°34' W 091°06'3 5.0
2017-Sep-20 00:00N 32°31' W 091°06'3 5.7
2017-Sep-19 23:30N 32°29' W 091°07'3 5.4
2017-Sep-19 23:00N 32°27' W 091°04'2 4.9
2017-Sep-19 22:30N 32°26' W 091°02'3 5.4
2017-Sep-19 22:00N 32°24' W 090°59'3 5.4
2017-Sep-19 21:30N 32°21' W 090°60'3 6.4
2017-Sep-19 21:00N 32°21' W 090°56'2 4.7
2017-Sep-19 20:30N 32°19' W 090°55'2 3.8
2017-Sep-19 20:00N 32°17' W 090°56'3 5.9
2017-Sep-19 19:30N 32°15' W 090°59'3 6.4
2017-Sep-19 19:00N 32°12' W 090°59'3 5.9
2017-Sep-19 18:30N 32°09' W 091°00'3 5.3
2017-Sep-19 18:00N 32°07' W 091°02'3 5.8
2017-Sep-19 17:30N 32°08' W 091°06'6 4.8
2017-Sep-19 16:19N 32°02' W 091°04'2 6.0
2017-Sep-19 16:00N 32°01' W 091°05'  

Dump ship's entire track history